»·PEaware :: DAL1194 KPDX-KSLC

DAL1194 :: KPDX-KSLC

FLIGHT INFORMATION

Flight Status: Arrived
Operator:
Delta Air Lines
More flights by this operator :: More flights under this callsign
Pilot: Joe P. (13940)
Aircraft: BOEING 737-700
(B737)
More flights by this aircraft type
Origin: KPDX Portland Intl
United States
Destination: KSLC Salt Lake City Intl
United States
More flights between these airports :: More routes between these airports
Route: WHAMY4 IMB J15 BOI BYI SKEES5
File this flight plan on PilotEdge
Remarks: KLAS -PBN / A1B1C1D1L1O1S1 NAV / RNVD1E2A1 DOF / 180903 REG / N389DA EET / KZLC0031 RVR / 200 PER / C
Altitude:
(Current/Filed)
350ft
Speed:
(Current/Filed)
453kts
Departed: 03-Sep-18 03:12 PM
Arrived: 03-Sep-18 04:42 PM
Distance/Time
Traveled:
546nm/1:30
Distance/Time
To Go:
Arrived

Flight Plot

Page will automatically refresh every two minutes.

Flight plan parsing failed; only flown route is shown


Map Options




Map Legend


Flown Route
Filed Route
Departure Airport
Arrival Airport
Navaid (VOR, NDB)
Fix

Horizontal Profiles

Position Reports

Time Latitude Longitude Heading Altitude Ground
Speed
03-Sep-18 14:02 45.591277 -122.594136 203 26ft 0kts
03-Sep-18 14:04 45.591277 -122.594136 203 26ft 0kts
03-Sep-18 14:04 45.591277 -122.594136 203 26ft 0kts
03-Sep-18 14:05 45.591277 -122.594136 203 26ft 0kts
03-Sep-18 14:06 45.591277 -122.594136 203 26ft 0kts
03-Sep-18 14:07 45.591277 -122.594136 203 26ft 0kts
03-Sep-18 14:08 45.591277 -122.594136 203 26ft 0kts
03-Sep-18 14:09 45.591277 -122.594136 203 26ft 0kts
03-Sep-18 14:10 45.591277 -122.594136 203 26ft 0kts
03-Sep-18 14:11 45.591277 -122.594136 203 26ft 0kts
03-Sep-18 14:12 45.591277 -122.594136 203 26ft 0kts
03-Sep-18 14:13 45.591277 -122.594136 203 26ft 0kts
03-Sep-18 14:14 45.591277 -122.594136 203 26ft 0kts
03-Sep-18 14:15 45.591277 -122.594136 203 26ft 0kts
03-Sep-18 14:16 45.591277 -122.594136 203 25ft 0kts
03-Sep-18 14:17 45.591277 -122.594136 203 25ft 0kts
03-Sep-18 14:18 45.591277 -122.594136 203 25ft 0kts
03-Sep-18 14:19 45.591277 -122.594136 203 25ft 0kts
03-Sep-18 14:20 45.591277 -122.594136 203 25ft 0kts
03-Sep-18 14:21 45.591277 -122.594136 203 25ft 0kts
03-Sep-18 14:22 45.591277 -122.594136 203 25ft 0kts
03-Sep-18 14:23 45.591277 -122.594136 203 25ft 0kts
03-Sep-18 14:24 45.591277 -122.594136 203 25ft 0kts
03-Sep-18 14:25 45.591277 -122.594136 203 25ft 0kts
03-Sep-18 14:26 45.591277 -122.594136 203 25ft 0kts
03-Sep-18 14:27 45.591277 -122.594136 203 25ft 0kts
03-Sep-18 14:28 45.591277 -122.594136 203 25ft 0kts
03-Sep-18 14:29 45.591277 -122.594136 203 25ft 0kts
03-Sep-18 14:30 45.591277 -122.594136 203 25ft 0kts
03-Sep-18 14:31 45.591277 -122.594136 203 25ft 0kts
03-Sep-18 14:32 45.591277 -122.594136 203 25ft 0kts
03-Sep-18 14:33 45.591277 -122.594136 203 25ft 0kts
03-Sep-18 14:34 45.591277 -122.594136 203 25ft 0kts
03-Sep-18 14:35 45.591277 -122.594136 203 25ft 0kts
03-Sep-18 14:36 45.591277 -122.594136 203 25ft 0kts
03-Sep-18 14:37 45.591277 -122.594136 203 25ft 0kts
03-Sep-18 14:38 45.591277 -122.594136 203 25ft 0kts
03-Sep-18 14:39 45.591277 -122.594136 203 25ft 0kts
03-Sep-18 14:40 45.591277 -122.594136 203 26ft 0kts
03-Sep-18 14:41 45.591277 -122.594136 203 26ft 0kts
03-Sep-18 14:42 45.591277 -122.594136 203 26ft 0kts
03-Sep-18 14:43 45.591277 -122.594136 203 26ft 0kts
03-Sep-18 14:44 45.591277 -122.594136 203 26ft 0kts
03-Sep-18 14:45 45.591277 -122.594136 203 25ft 0kts
03-Sep-18 14:46 45.591277 -122.594136 203 25ft 0kts
03-Sep-18 14:47 45.591277 -122.594136 203 25ft 0kts
03-Sep-18 14:48 45.591277 -122.594136 203 25ft 0kts
03-Sep-18 14:49 45.591277 -122.594136 203 25ft 0kts
03-Sep-18 14:50 45.591277 -122.594136 203 25ft 0kts
03-Sep-18 14:51 45.591277 -122.594136 203 25ft 0kts
03-Sep-18 14:52 45.591277 -122.594136 203 25ft 0kts
03-Sep-18 14:53 45.591277 -122.594136 203 25ft 0kts
03-Sep-18 14:54 45.591277 -122.594136 203 25ft 0kts
03-Sep-18 14:55 45.591295 -122.594126 203 25ft 1kts
03-Sep-18 14:56 45.591681 -122.593527 278 25ft 2kts
03-Sep-18 14:57 45.591521 -122.593038 299 25ft 0kts
03-Sep-18 14:58 45.591521 -122.593039 299 25ft 0kts
03-Sep-18 14:59 45.591522 -122.593040 299 25ft 0kts
03-Sep-18 15:00 45.591522 -122.593042 299 25ft 0kts
03-Sep-18 15:01 45.591556 -122.593130 297 25ft 1kts
03-Sep-18 15:02 45.591772 -122.593724 296 25ft 2kts
03-Sep-18 15:03 45.592338 -122.595198 300 25ft 9kts
03-Sep-18 15:04 45.591398 -122.599666 259 25ft 15kts
03-Sep-18 15:05 45.590731 -122.602832 222 25ft 12kts
03-Sep-18 15:06 45.588344 -122.600770 119 25ft 14kts
03-Sep-18 15:07 45.586484 -122.595894 118 25ft 15kts
03-Sep-18 15:08 45.584244 -122.589976 118 25ft 17kts
03-Sep-18 15:09 45.581919 -122.583841 117 25ft 13kts
03-Sep-18 15:10 45.581320 -122.583475 207 25ft 0kts
03-Sep-18 15:11 45.581318 -122.583476 207 25ft 0kts
03-Sep-18 15:12 45.580778 -122.584667 295 25ft 1kts
03-Sep-18 15:13 45.596481 -122.625145 301 1556ft 164kts
03-Sep-18 15:15 45.625162 -122.691012 301 3524ft 238kts
03-Sep-18 15:16 45.661052 -122.779699 301 6703ft 265kts
03-Sep-18 15:17 45.657930 -122.885742 246 10025ft 287kts
03-Sep-18 15:18 45.584254 -122.919865 159 12659ft 340kts
03-Sep-18 15:19 45.515270 -122.813967 115 14205ft 399kts
03-Sep-18 15:20 45.470152 -122.665800 114 16605ft 415kts
03-Sep-18 15:21 45.422550 -122.512594 115 18771ft 430kts
03-Sep-18 15:22 45.373369 -122.354079 114 20728ft 445kts
03-Sep-18 15:23 45.322027 -122.190796 115 22494ft 458kts
03-Sep-18 15:24 45.268817 -122.024157 115 24081ft 470kts
03-Sep-18 15:25 45.220399 -121.849742 110 25527ft 481kts
03-Sep-18 15:26 45.174334 -121.669900 110 26883ft 490kts
03-Sep-18 15:27 45.126827 -121.486800 110 28080ft 499kts
03-Sep-18 15:28 45.078946 -121.301424 110 29394ft 501kts
03-Sep-18 15:29 45.030621 -121.117271 110 30894ft 498kts
03-Sep-18 15:30 44.982304 -120.934923 110 32321ft 495kts
03-Sep-18 15:31 44.933852 -120.753551 110 33646ft 492kts
03-Sep-18 15:32 44.885379 -120.573490 110 34834ft 490kts
03-Sep-18 15:33 44.836574 -120.393516 110 35065ft 491kts
03-Sep-18 15:34 44.787879 -120.215263 111 35067ft 487kts
03-Sep-18 15:35 44.739366 -120.037747 111 35069ft 486kts
03-Sep-18 15:36 44.690327 -119.861325 111 35072ft 482kts
03-Sep-18 15:37 44.640993 -119.685952 112 35076ft 483kts
03-Sep-18 15:38 44.589613 -119.511101 112 35080ft 483kts
03-Sep-18 15:39 44.538063 -119.337105 112 35085ft 483kts
03-Sep-18 15:40 44.486770 -119.163044 112 35087ft 482kts
03-Sep-18 15:41 44.435547 -118.990097 112 35090ft 482kts
03-Sep-18 15:42 44.383678 -118.816966 112 35088ft 481kts
03-Sep-18 15:43 44.331848 -118.645119 112 35086ft 479kts
03-Sep-18 15:44 44.279874 -118.474044 112 35080ft 477kts
03-Sep-18 15:45 44.228050 -118.304633 112 35074ft 475kts
03-Sep-18 15:46 44.175931 -118.135389 112 35066ft 474kts
03-Sep-18 15:47 44.123808 -117.967230 112 35057ft 473kts
03-Sep-18 15:48 44.071492 -117.799544 112 35044ft 473kts
03-Sep-18 15:49 44.018880 -117.632019 113 35028ft 473kts
03-Sep-18 15:50 43.966045 -117.464808 113 35005ft 471kts
03-Sep-18 15:51 43.913228 -117.298725 113 34996ft 470kts
03-Sep-18 15:52 43.860269 -117.133242 113 34994ft 469kts
03-Sep-18 15:53 43.807071 -116.968051 114 34995ft 468kts
03-Sep-18 15:54 43.753943 -116.804096 114 34999ft 467kts
03-Sep-18 15:55 43.700639 -116.640596 114 35000ft 467kts
03-Sep-18 15:56 43.647268 -116.476858 114 34988ft 466kts
03-Sep-18 15:57 43.593259 -116.313734 115 35004ft 466kts
03-Sep-18 15:58 43.537952 -116.152601 119 35029ft 466kts
03-Sep-18 15:59 43.474221 -115.997014 120 35029ft 465kts
03-Sep-18 16:00 43.410632 -115.841710 120 35026ft 465kts
03-Sep-18 16:01 43.347668 -115.686937 120 35022ft 464kts
03-Sep-18 16:01 43.295138 -115.558166 120 35021ft 463kts
03-Sep-18 16:03 43.221498 -115.379100 121 35027ft 462kts
03-Sep-18 16:04 43.158132 -115.226031 121 35030ft 461kts
03-Sep-18 16:04 43.105072 -115.098502 121 35038ft 461kts
03-Sep-18 16:05 43.041497 -114.946443 122 35050ft 460kts
03-Sep-18 16:06 42.977843 -114.794981 122 35062ft 460kts
03-Sep-18 16:08 42.903262 -114.618537 122 35067ft 459kts
03-Sep-18 16:08 42.849967 -114.493063 122 35069ft 459kts
03-Sep-18 16:09 42.785866 -114.342860 122 35070ft 458kts
03-Sep-18 16:10 42.721834 -114.192991 122 35069ft 457kts
03-Sep-18 16:11 42.657615 -114.044018 122 35065ft 456kts
03-Sep-18 16:12 42.592723 -113.896113 126 35061ft 455kts
03-Sep-18 16:13 42.508813 -113.769750 137 35060ft 450kts
03-Sep-18 16:14 42.419572 -113.650308 138 35051ft 452kts
03-Sep-18 16:15 42.329587 -113.530672 138 35041ft 452kts
03-Sep-18 16:16 42.239911 -113.411918 138 34371ft 449kts
03-Sep-18 16:17 42.150464 -113.294137 137 31644ft 449kts
03-Sep-18 16:18 42.062076 -113.178201 137 29555ft 436kts
03-Sep-18 16:19 41.976421 -113.065611 137 27574ft 425kts
03-Sep-18 16:20 41.892680 -112.955753 136 25616ft 416kts
03-Sep-18 16:21 41.810218 -112.848475 136 23674ft 411kts
03-Sep-18 16:22 41.728233 -112.742517 136 21725ft 406kts
03-Sep-18 16:23 41.647367 -112.638044 136 19790ft 402kts
03-Sep-18 16:24 41.567959 -112.536103 137 17899ft 392kts
03-Sep-18 16:25 41.485024 -112.446018 148 16363ft 374kts
03-Sep-18 16:26 41.395224 -112.381258 153 15168ft 363kts
03-Sep-18 16:27 41.305928 -112.318531 153 13993ft 361kts
03-Sep-18 16:28 41.217814 -112.255979 151 12937ft 356kts
03-Sep-18 16:29 41.132236 -112.190259 150 12386ft 354kts
03-Sep-18 16:30 41.042988 -112.139116 170 11828ft 349kts
03-Sep-18 16:31 40.946891 -112.119342 171 11286ft 347kts
03-Sep-18 16:32 40.851126 -112.102625 176 10957ft 347kts
03-Sep-18 16:33 40.761607 -112.092876 175 10576ft 304kts
03-Sep-18 16:34 40.681380 -112.083748 175 9504ft 273kts
03-Sep-18 16:35 40.608698 -112.075344 174 8405ft 253kts
03-Sep-18 16:36 40.542827 -112.067291 167 7975ft 218kts
03-Sep-18 16:37 40.532886 -112.003804 62 8011ft 199kts
03-Sep-18 16:38 40.580767 -111.978221 1 7962ft 183kts
03-Sep-18 16:39 40.629582 -111.979055 356 7044ft 170kts
03-Sep-18 16:40 40.676746 -111.984120 354 6146ft 170kts
03-Sep-18 16:41 40.723522 -111.989514 355 5250ft 171kts
03-Sep-18 16:42 40.770598 -111.994993 355 4318ft 167kts
03-Sep-18 16:43 40.798011 -111.997437 48 4235ft 14kts
03-Sep-18 16:44 40.798116 -111.997273 51 4235ft 0kts
03-Sep-18 16:45 40.798268 -111.996977 63 4235ft 0kts
03-Sep-18 16:46 40.798268 -111.996976 63 4235ft 0kts
03-Sep-18 16:47 40.798467 -111.996538 80 4235ft 6kts
03-Sep-18 16:48 40.795375 -111.994995 127 4235ft 9kts
03-Sep-18 16:49 40.791829 -111.993766 102 4235ft 7kts
03-Sep-18 16:50 40.791269 -111.990402 84 4235ft 15kts
03-Sep-18 16:51 40.791000 -111.986228 171 4235ft 9kts
03-Sep-18 16:52 40.789851 -111.983742 91 4235ft 14kts
03-Sep-18 16:53 40.788814 -111.979839 178 4235ft 9kts
03-Sep-18 16:54 40.788533 -111.980743 282 4235ft 0kts
03-Sep-18 16:55 40.788533 -111.980743 282 4235ft 0kts
03-Sep-18 16:56 40.788533 -111.980743 282 4235ft 0kts
03-Sep-18 16:57 40.788533 -111.980743 282 4235ft 0kts
03-Sep-18 16:58 40.788533 -111.980743 282 4235ft 0kts

Navigation Log

Ident Type
Flight plan parsing failed, navigation log unavailable